Details From LEMG - Malaga
To LEAM - Almeria
Flight Number -
Tags decoded
Created
Modified
Stats Distance 106 nm / 197 km
Max Altitude 0 ft / 0 m
Waypoints 4
Social Downloads 5
Likes 0
Share VATSIM

Download

Looking for another format? Having issues loading an existing format? Contact us
Advertisement - Login to hide

Notes

Requested: LEMG MGA ADRAS LEAM

Route

LEMG MGA ADRAS LEAM

ID Type Via Altitude Latitude Longitude Leg Dist Tot Dist Heading (true) Name
O LEMG APT - 0 ft / 0 m 36.67978˚ -4.49590˚ - 0 nm - Malaga
MGA VOR - 0 ft / 0 m 36.81431˚ -4.36952˚ 10 nm 10 nm 37° / 37° MALAGA VOR-DME
ADRAS FIX - 0 ft / 0 m 36.83216˚ -2.72753˚ 78 nm 89 nm 89° / 90° -
O LEAM APT - 0 ft / 0 m 36.84393˚ -2.37010˚ 17 nm 106 nm 88° / 88° Almeria

Altitude Profile

Advertisement - Login to hide

LEMG

Details ICAO LEMG (AGP)
Name Malaga
Region Spain
Timezone Europe/Madrid (UTC+2.0)
Stats Elevation 52 ft / 16 m (AMSL)
Location 36.679780° -4.495899°
Runways 2
Magnetic Variation 0.826° W

METAR

LEMG 270800Z 15003KT 100V200 9999 FEW008 21/17 Q1015 NOSIG

Decode

TAF

TAF TAF LEMG 270500Z 2706/2806 VRB02KT 9999 SCT030 TX26/2714Z TN16/2805Z BECMG 2710/2713 20012KT PROB40 TEMPO 2709/2711 14006KT PROB40 TEMPO 2713/2719 20015G25KT BECMG 2719/2721 29004KT

Decode

Departure Runways

ID Width Length Bearing (true) Bearing (mag) Surface Threshold Offset Overrun Length
12 148 ft / 45 m 10,057 ft / 3,065 m 117.76° 118.59° Asphalt 0 ft / 0 m 650 ft / 198 m
13 148 ft / 45 m 10,509 ft / 3,203 m 131.69° 132.52° Asphalt 0 ft / 0 m 246 ft / 75 m
30 148 ft / 45 m 10,057 ft / 3,065 m 297.78° 298.61° Asphalt 1,115 ft / 340 m 466 ft / 142 m
31 148 ft / 45 m 10,509 ft / 3,203 m 311.70° 312.53° Asphalt 0 ft / 0 m 246 ft / 75 m

LEAM

Details ICAO LEAM (LEI)
Name Almeria
Region Spain
Timezone Unknown (UTC+0.0)
Stats Elevation 70 ft / 21 m (AMSL)
Location 36.843935° -2.370097°
Runways 1
Magnetic Variation 0.238° W

METAR

LEAM 270800Z 25008KT 220V280 9999 FEW010 SCT020 BKN090 19/17 Q1014

Decode

TAF

TAF LEAM 270200Z 2703/2803 07006KT 9999 FEW030 TX24/2715Z TN17/2705Z PROB30 TEMPO 2703/2708 4000 SHRA SCT030CB BECMG 2708/2711 22016KT TEMPO 2711/2720 22018G30KT BECMG 2719/2722 24006KT

Decode

Destination Runways

ID Width Length Bearing (true) Bearing (mag) Surface Threshold Offset Overrun Length
08 148 ft / 45 m 10,484 ft / 3,196 m 72.94° 73.18° Asphalt 492 ft / 150 m 191 ft / 58 m
26 148 ft / 45 m 10,484 ft / 3,196 m 252.96° 253.20° Asphalt 0 ft / 0 m 150 ft / 46 m

Approach Navaids

Runway Type Ident Frequency Range Bearing (true) Bearing (mag) Slope Elevation
26 Localiser IAM 109.90 MHz 18 nm / 33 km 252.94° 253.18° - 70 ft / 21 m (AMSL)
26 Glidescope IAM 109.90 MHz 10 nm / 19 km 252.95° 253.19° 3.00° 70 ft / 21 m (AMSL)
26 DME IAM 109.90 MHz 18 nm / 33 km - - - 95 ft / 29 m (AMSL)

Popular Alternatives